首页
METAR-TAF:

METAR-TAF

机场 :

萨尔茨堡沃尔夫冈·阿马多伊斯·莫扎特机场

萨尔茨堡, 奥地利

纬度: 47-48N, 经度: 013-00E, 海拔: 430米

当前天气观测

该预报发布于25分钟前的21:20 UTC
风速8节,风向南转南东
温度 7°C
湿度 70%
气压 1015 hPa
能见度10公里或以上
少量云层高于7000英尺

METAR: LOWS 282120Z 15008KT 9999 FEW070 07/02 Q1015 NOSIG

时间: 22:45 (21:45 UTC)

预报

该预报发布于4小时和30分钟前的17:15 UTC
预报有效从28日的 18点(UTC)到 29日的 18点(UTC)
风速5节,风向南转南东
能见度10公里或以上
少量云层高于5000英尺
几率 40% :
短暂存在
从 29日的 04点(UTC)到 29日的 18点(UTC)
风速10节,风向西北
小阵雨

TAF: LOWS 281715Z 2818/2918 15005KT 9999 FEW050 TX11/2818Z TN05/2918Z PROB40 TEMPO 2904/2918 32010KT -SHRA

超过4000个机场的气象观测和天气预报(METAR&TAF报告)。

可查询的气象台以黄色和红色小点在地图上表示。

将鼠标移到小点上方,可查看气象台名称。

然后点击查看天气观测和预报。

如需切换地图:点击带黑十字的绿色按钮放大地图;点击带横线的绿色按钮缩小地图;或者点击绿色箭头查看邻近地区的地图。


METAR-TAF: